createdAt,value
2022-12-27T00:37:45.583Z,-8.52
2022-12-27T00:40:15.167Z,-8.44
2022-12-27T00:42:44.332Z,-8.35
2022-12-27T00:45:13.663Z,-8.37
2022-12-27T00:47:42.734Z,-8.21
2022-12-27T00:50:12.124Z,-8.15
2022-12-27T00:52:41.176Z,-7.99
2022-12-27T00:55:12.111Z,-7.87
2022-12-27T00:57:41.142Z,-7.79
2022-12-27T01:00:11.677Z,-7.88
2022-12-27T01:02:40.894Z,-7.64
2022-12-27T01:05:10.494Z,-7.82
2022-12-27T01:07:39.592Z,-7.53
2022-12-27T01:10:09.235Z,-7.49
2022-12-27T01:12:39.881Z,-7.48
2022-12-27T01:15:10.980Z,-7.59
2022-12-27T01:17:40.181Z,-7.43
2022-12-27T01:20:10.586Z,-7.41
2022-12-27T01:22:40.094Z,-7.40
2022-12-27T01:25:09.985Z,-7.39
2022-12-27T01:27:40.647Z,-7.37
2022-12-27T01:30:11.226Z,-7.38
2022-12-27T01:32:40.493Z,-7.38
2022-12-27T01:35:10.312Z,-7.38
2022-12-27T01:37:39.534Z,-7.42
2022-12-27T01:40:10.419Z,-7.40
2022-12-27T01:42:53.951Z,-7.48
2022-12-27T01:45:25.495Z,-7.51
2022-12-27T01:48:01.089Z,-8.41
2022-12-27T01:50:35.752Z,-8.60
2022-12-27T01:53:14.677Z,-8.52
2022-12-27T01:55:48.627Z,-7.57
2022-12-27T01:58:24.118Z,-8.82
2022-12-27T02:00:53.865Z,-8.58
2022-12-27T02:03:27.306Z,-7.84
2022-12-27T02:05:57.468Z,-7.85
2022-12-27T02:08:37.503Z,-8.70
2022-12-27T02:11:09.222Z,-7.72
2022-12-27T02:13:43.467Z,-8.21
2022-12-27T02:16:14.712Z,-7.64
2022-12-27T02:18:44.169Z,-8.02
2022-12-27T02:21:45.019Z,-8.65
2022-12-27T02:24:40.089Z,-7.82
2022-12-27T02:27:21.532Z,-7.98
2022-12-27T02:30:01.660Z,-8.18
2022-12-27T02:32:35.134Z,-8.65
2022-12-27T02:35:12.097Z,-9.04
2022-12-27T02:37:47.882Z,-7.64
2022-12-27T02:40:37.608Z,-7.74
2022-12-27T02:43:24.473Z,-7.59
2022-12-27T02:46:21.951Z,-8.19
2022-12-27T02:49:12.893Z,-7.03
2022-12-27T02:52:16.333Z,-7.60
2022-12-27T02:55:11.754Z,-7.23
2022-12-27T02:57:48.482Z,-7.07
2022-12-27T03:00:37.639Z,-7.01
2022-12-27T03:03:44.740Z,-7.02
2022-12-27T03:06:44.533Z,-7.57
2022-12-27T03:09:49.367Z,-6.76
2022-12-27T03:12:43.165Z,-6.42
2022-12-27T03:15:42.175Z,-7.29
2022-12-27T03:18:15.632Z,-6.77
2022-12-27T03:21:05.796Z,-7.52
2022-12-27T03:23:53.765Z,-7.00
2022-12-27T03:26:25.026Z,-6.34
2022-12-27T03:29:13.433Z,-6.33
2022-12-27T03:32:04.702Z,-6.27
2022-12-27T03:34:38.716Z,-6.21
2022-12-27T03:37:29.343Z,-6.22
2022-12-27T03:40:08.784Z,-6.14
2022-12-27T03:42:59.675Z,-6.03
2022-12-27T03:45:48.247Z,-5.96
2022-12-27T03:48:25.111Z,-5.93
2022-12-27T03:51:05.368Z,-5.94
2022-12-27T03:53:40.256Z,-5.95
2022-12-27T03:56:11.193Z,-5.89
2022-12-27T03:58:40.334Z,-5.84
2022-12-27T04:01:09.443Z,-5.84
2022-12-27T04:03:38.636Z,-5.87
2022-12-27T04:06:08.124Z,-5.99
2022-12-27T04:08:55.892Z,-6.07
2022-12-27T04:11:41.839Z,-6.04
2022-12-27T04:14:28.052Z,-6.18
2022-12-27T04:17:14.044Z,-6.16
2022-12-27T04:20:00.964Z,-6.19
2022-12-27T04:22:47.055Z,-6.20
2022-12-27T04:25:34.709Z,-6.21
2022-12-27T04:28:20.837Z,-6.18
2022-12-27T04:31:06.999Z,-6.08
2022-12-27T04:33:53.137Z,-5.99
2022-12-27T04:36:22.830Z,-6.00
2022-12-27T04:38:51.922Z,-5.68
2022-12-27T04:41:39.735Z,-5.58
2022-12-27T04:44:25.774Z,-5.58
2022-12-27T04:47:11.797Z,-5.42
2022-12-27T04:49:58.165Z,-5.43
2022-12-27T04:52:44.713Z,-5.34
2022-12-27T04:55:21.518Z,-5.29
2022-12-27T04:57:53.410Z,-5.20
2022-12-27T05:00:41.755Z,-5.20
2022-12-27T05:03:13.440Z,-5.32
2022-12-27T05:05:45.306Z,-5.28
2022-12-27T05:08:32.834Z,-5.29
2022-12-27T05:11:19.146Z,-5.27
2022-12-27T05:14:01.507Z,-5.29
2022-12-27T05:16:31.653Z,-5.31
2022-12-27T05:19:01.281Z,-5.41
2022-12-27T05:21:30.696Z,-5.39
2022-12-27T05:24:16.731Z,-5.52
2022-12-27T05:26:45.737Z,-5.83
2022-12-27T05:29:16.881Z,-5.97
2022-12-27T05:31:46.147Z,-5.50
2022-12-27T05:34:15.339Z,-5.53
2022-12-27T05:36:44.739Z,-5.78
2022-12-27T05:39:13.839Z,-5.71
2022-12-27T05:41:42.964Z,-5.75
2022-12-27T05:44:12.171Z,-5.51
2022-12-27T05:46:43.324Z,-5.71
2022-12-27T05:49:12.375Z,-5.42
2022-12-27T05:51:41.518Z,-5.48
2022-12-27T05:54:10.629Z,-5.31
2022-12-27T05:56:39.768Z,-5.43
2022-12-27T05:59:09.238Z,-5.23
2022-12-27T06:01:38.441Z,-5.24
2022-12-27T06:04:09.224Z,-5.12
2022-12-27T06:06:38.366Z,-5.06
2022-12-27T06:09:07.578Z,-5.02
2022-12-27T06:11:36.639Z,-4.95
2022-12-27T06:14:05.752Z,-4.87
2022-12-27T06:16:35.051Z,-4.81
2022-12-27T06:19:04.456Z,-4.77
2022-12-27T06:21:35.072Z,-4.80
2022-12-27T06:24:04.285Z,-4.83
2022-12-27T06:26:33.369Z,-4.70
2022-12-27T06:29:02.458Z,-4.69
2022-12-27T06:31:31.723Z,-4.67
2022-12-27T06:34:00.883Z,-4.64
2022-12-27T06:36:30.753Z,-4.62
2022-12-27T06:39:01.948Z,-4.60
2022-12-27T06:41:30.997Z,-4.85
2022-12-27T06:44:00.431Z,-4.86
2022-12-27T06:46:29.695Z,-4.57
2022-12-27T06:48:59.453Z,-4.50
2022-12-27T06:51:28.549Z,-4.55
2022-12-27T06:53:57.640Z,-4.38
2022-12-27T06:56:28.259Z,-4.43
2022-12-27T06:58:57.388Z,-4.29
2022-12-27T07:01:28.245Z,-4.26
2022-12-27T07:03:58.839Z,-4.21
2022-12-27T07:06:30.041Z,-4.25
2022-12-27T07:09:00.189Z,-4.20
2022-12-27T07:11:31.277Z,-4.08
2022-12-27T07:14:00.361Z,-4.11
2022-12-27T07:16:30.548Z,-4.08
2022-12-27T07:19:01.193Z,-3.96
2022-12-27T07:21:31.640Z,-3.93
2022-12-27T07:24:00.764Z,-3.96
2022-12-27T07:26:32.510Z,-4.00
2022-12-27T07:29:03.154Z,-3.91
2022-12-27T07:31:34.086Z,-3.91
2022-12-27T07:34:05.182Z,-3.99
2022-12-27T07:36:37.301Z,-4.01
2022-12-27T07:39:07.564Z,-4.03
2022-12-27T07:41:39.481Z,-4.12
2022-12-27T07:44:09.161Z,-4.11
2022-12-27T07:46:38.325Z,-4.45
2022-12-27T07:49:11.046Z,-4.21
2022-12-27T07:51:42.918Z,-4.30
2022-12-27T07:54:12.188Z,-4.39
2022-12-27T07:56:42.770Z,-4.45
2022-12-27T07:59:14.059Z,-4.58
2022-12-27T08:02:00.642Z,-4.58
2022-12-27T08:04:29.905Z,-4.71
2022-12-27T08:07:04.436Z,-4.66
2022-12-27T08:09:36.037Z,-4.70
2022-12-27T08:12:07.250Z,-4.71
2022-12-27T08:14:36.757Z,-4.81
2022-12-27T08:17:08.879Z,-4.71
2022-12-27T08:19:38.098Z,-4.75
2022-12-27T08:22:07.273Z,-4.97
2022-12-27T08:24:36.317Z,-4.83
2022-12-27T08:27:06.993Z,-4.94
2022-12-27T08:29:36.132Z,-4.96
2022-12-27T08:32:05.381Z,-5.35
2022-12-27T08:34:34.522Z,-5.13
2022-12-27T08:37:03.736Z,-5.16
2022-12-27T08:39:32.930Z,-5.21
2022-12-27T08:42:02.069Z,-5.33
2022-12-27T08:44:32.643Z,-5.29
2022-12-27T08:47:01.712Z,-5.34
2022-12-27T08:49:30.854Z,-5.37
2022-12-27T08:52:00.041Z,-5.41
2022-12-27T08:54:29.152Z,-5.44
2022-12-27T08:56:58.240Z,-5.47
2022-12-27T08:59:27.368Z,-5.54
2022-12-27T09:01:58.046Z,-5.58
2022-12-27T09:04:27.197Z,-5.86
2022-12-27T09:06:56.310Z,-5.56
2022-12-27T09:09:25.407Z,-5.59
2022-12-27T09:11:54.586Z,-5.83
2022-12-27T09:14:23.809Z,-5.67
2022-12-27T09:16:52.941Z,-5.70
2022-12-27T09:19:23.602Z,-5.75
2022-12-27T09:21:52.765Z,-5.78
2022-12-27T09:24:22.041Z,-5.94
2022-12-27T09:26:51.075Z,-5.94
2022-12-27T09:29:20.436Z,-6.13
2022-12-27T09:31:49.550Z,-6.28
2022-12-27T09:34:18.669Z,-6.14
2022-12-27T09:36:49.296Z,-6.24
2022-12-27T09:39:18.570Z,-6.32
2022-12-27T09:44:52.480Z,-6.50
2022-12-27T09:47:27.509Z,-6.57
2022-12-27T09:50:01.052Z,-6.85
2022-12-27T09:52:35.608Z,-6.76
2022-12-27T09:55:10.093Z,-6.72
2022-12-27T09:57:43.132Z,-6.82
2022-12-27T10:00:17.822Z,-7.32
2022-12-27T10:02:47.286Z,-6.84
2022-12-27T10:05:24.596Z,-6.91
2022-12-27T10:08:06.850Z,-7.17
2022-12-27T10:10:46.364Z,-7.14
2022-12-27T10:13:31.523Z,-7.19
2022-12-27T10:16:14.333Z,-7.15
2022-12-27T10:18:51.623Z,-7.24
2022-12-27T10:21:24.300Z,-7.34
2022-12-27T10:23:58.628Z,-7.27
2022-12-27T10:26:28.699Z,-7.30
2022-12-27T10:29:03.476Z,-7.34
2022-12-27T10:31:33.746Z,-7.39
2022-12-27T10:34:07.527Z,-7.63
2022-12-27T10:36:39.843Z,-7.47
2022-12-27T10:39:19.094Z,-7.61
2022-12-27T10:42:03.933Z,-7.55
2022-12-27T10:44:32.990Z,-7.59
2022-12-27T10:47:02.208Z,-7.58
2022-12-27T10:49:32.638Z,-7.59
2022-12-27T10:52:10.274Z,-7.61
2022-12-27T10:54:54.082Z,-7.93
2022-12-27T10:57:29.175Z,-7.71
2022-12-27T11:00:18.734Z,-7.81
2022-12-27T11:02:55.313Z,-7.74
2022-12-27T11:05:26.547Z,-7.91
2022-12-27T11:07:56.034Z,-7.80
2022-12-27T11:10:29.224Z,-8.01
2022-12-27T11:13:00.248Z,-7.88
2022-12-27T11:15:31.618Z,-8.06
2022-12-27T11:18:03.485Z,-7.93
2022-12-27T11:20:35.488Z,-8.17
2022-12-27T11:23:07.420Z,-7.96
2022-12-27T11:25:48.848Z,-8.00
2022-12-27T11:28:25.060Z,-8.04
2022-12-27T11:30:59.209Z,-8.08
2022-12-27T11:33:35.171Z,-8.16
2022-12-27T11:36:04.097Z,-8.15
2022-12-27T11:38:35.819Z,-8.46
2022-12-27T11:41:10.571Z,-8.34
2022-12-27T11:43:46.558Z,-8.36
2022-12-27T11:46:26.286Z,-8.32
2022-12-27T11:48:58.914Z,-8.33
2022-12-27T11:51:51.151Z,-8.84
2022-12-27T11:54:35.334Z,-8.48
2022-12-27T11:57:22.751Z,-8.42
2022-12-27T12:00:05.553Z,-8.57
2022-12-27T12:02:54.613Z,-8.47
2022-12-27T12:05:49.395Z,-8.52
2022-12-27T12:08:38.850Z,-8.79
2022-12-27T12:11:17.374Z,-8.74
2022-12-27T12:14:14.333Z,-8.66
2022-12-27T12:17:06.780Z,-9.20
2022-12-27T12:19:52.444Z,-9.27
2022-12-27T12:22:39.809Z,-8.73
2022-12-27T12:26:05.180Z,-8.83
2022-12-27T12:29:05.055Z,-8.86
2022-12-27T12:31:49.913Z,-9.06
2022-12-27T12:34:36.949Z,-8.97
2022-12-27T12:37:20.165Z,-8.98
2022-12-27T12:40:08.933Z,-9.59
2022-12-27T12:42:47.287Z,-9.00
2022-12-27T12:45:47.619Z,-9.03
2022-12-27T12:48:32.076Z,-9.25
2022-12-27T12:51:22.732Z,-9.20
2022-12-27T12:54:05.909Z,-9.18
2022-12-27T12:56:53.409Z,-9.80
2022-12-27T12:59:49.673Z,-9.28
2022-12-27T13:03:06.689Z,-9.38
2022-12-27T13:05:45.040Z,-9.43
2022-12-27T13:08:20.508Z,-9.49
2022-12-27T13:11:25.447Z,-9.55
2022-12-27T13:14:07.363Z,-9.61
2022-12-27T13:16:47.893Z,-9.64
2022-12-27T13:19:36.805Z,-9.68
2022-12-27T13:22:17.447Z,-9.72
2022-12-27T13:25:06.638Z,-9.74
2022-12-27T13:27:41.311Z,-9.84
2022-12-27T13:30:20.829Z,-9.82
2022-12-27T13:33:10.613Z,-9.77
2022-12-27T13:35:55.090Z,-10.04
2022-12-27T13:38:39.907Z,-9.82
2022-12-27T13:41:36.280Z,-9.94
2022-12-27T13:44:25.529Z,-9.93
2022-12-27T13:47:22.990Z,-9.96
2022-12-27T13:50:13.347Z,-10.01
2022-12-27T13:53:05.538Z,-10.05
2022-12-27T13:55:43.441Z,-10.12
2022-12-27T13:58:36.448Z,-10.15
2022-12-27T14:01:22.005Z,-10.03
2022-12-27T14:04:17.348Z,-10.11
2022-12-27T14:06:55.255Z,-10.08
2022-12-27T14:09:53.462Z,-10.39
2022-12-27T14:12:57.703Z,-10.27
2022-12-27T14:15:35.354Z,-10.32
2022-12-27T14:18:38.812Z,-10.31
2022-12-27T14:21:22.128Z,-10.38
2022-12-27T14:24:02.323Z,-10.41
2022-12-27T14:27:00.055Z,-10.45
2022-12-27T14:30:10.991Z,-10.74
2022-12-27T14:33:20.385Z,-10.60
2022-12-27T14:36:21.094Z,-10.61
2022-12-27T14:39:23.125Z,-10.69
2022-12-27T14:42:23.057Z,-10.93
2022-12-27T14:45:23.709Z,-10.93
2022-12-27T14:48:19.853Z,-10.93
2022-12-27T14:51:58.643Z,-10.98
2022-12-27T14:55:03.061Z,-11.04
2022-12-27T14:57:42.248Z,-11.10
2022-12-27T15:00:17.463Z,-11.15
2022-12-27T15:03:03.964Z,-11.21
2022-12-27T15:05:53.082Z,-11.25
2022-12-27T15:08:43.918Z,-11.32
2022-12-27T15:11:51.882Z,-11.36
2022-12-27T15:14:47.019Z,-11.50
2022-12-27T15:17:28.611Z,-11.43
2022-12-27T15:20:42.105Z,-11.47
2022-12-27T15:23:24.713Z,-11.93
2022-12-27T15:26:06.184Z,-11.51
2022-12-27T15:28:50.100Z,-13.85
2022-12-27T15:31:34.279Z,-11.58
2022-12-27T15:34:18.665Z,-11.54
2022-12-27T15:36:49.762Z,-11.53
2022-12-27T15:39:51.641Z,-11.56
2022-12-27T15:42:49.406Z,-12.05
2022-12-27T15:45:32.155Z,-11.59
2022-12-27T15:48:28.433Z,-11.71
2022-12-27T15:51:12.207Z,-11.59
2022-12-27T15:53:58.770Z,-11.83
2022-12-27T15:56:45.282Z,-11.57
2022-12-27T15:59:37.091Z,-11.56
2022-12-27T16:02:35.153Z,-11.80
2022-12-27T16:05:35.795Z,-11.56
2022-12-27T16:08:30.207Z,-11.51
2022-12-27T16:11:00.523Z,-11.57
2022-12-27T16:13:44.433Z,-11.52
2022-12-27T16:16:58.097Z,-11.64
2022-12-27T16:19:56.486Z,-11.58
2022-12-27T16:22:52.461Z,-11.63
2022-12-27T16:25:31.293Z,-11.78
2022-12-27T16:28:04.688Z,-11.79
2022-12-27T16:30:40.351Z,-11.78
2022-12-27T16:33:35.436Z,-11.88
2022-12-27T16:36:26.293Z,-11.83
2022-12-27T16:39:19.769Z,-12.00
2022-12-27T16:42:02.800Z,-11.85
2022-12-27T16:44:48.401Z,-12.00
2022-12-27T16:47:40.146Z,-12.00
2022-12-27T16:50:40.744Z,-11.88
2022-12-27T16:53:33.905Z,-11.99
2022-12-27T16:56:24.456Z,-11.87
2022-12-27T16:58:54.451Z,-11.94
2022-12-27T17:02:01.930Z,-11.93
2022-12-27T17:04:53.948Z,-11.87
2022-12-27T17:07:45.905Z,-11.96
2022-12-27T17:10:45.335Z,-12.25
2022-12-27T17:13:20.465Z,-12.96
2022-12-27T17:15:55.432Z,-13.40
2022-12-27T17:18:30.557Z,-12.35
2022-12-27T17:21:06.449Z,-12.42
2022-12-27T17:23:39.957Z,-12.50
2022-12-27T17:26:27.602Z,-12.56
2022-12-27T17:29:07.607Z,-12.60
2022-12-27T17:31:45.863Z,-12.63
2022-12-27T17:34:27.549Z,-12.79
2022-12-27T17:37:04.267Z,-12.74
2022-12-27T17:39:52.302Z,-12.70
2022-12-27T17:42:48.992Z,-12.76
2022-12-27T17:45:31.769Z,-12.75
2022-12-27T17:48:11.240Z,-12.79
2022-12-27T17:50:44.776Z,-12.79
2022-12-27T17:53:37.340Z,-12.96
2022-12-27T17:56:35.965Z,-12.76
2022-12-27T17:59:08.667Z,-13.30
2022-12-27T18:01:46.045Z,-13.93
2022-12-27T18:04:26.361Z,-12.69
2022-12-27T18:07:00.758Z,-13.64
2022-12-27T18:09:38.019Z,-12.90
2022-12-27T18:12:13.267Z,-13.60
2022-12-27T18:14:43.193Z,-12.66
2022-12-27T18:17:29.134Z,-13.90
2022-12-27T18:19:58.917Z,-13.24
2022-12-27T18:22:29.366Z,-13.67
2022-12-27T18:24:58.637Z,-14.12
2022-12-27T18:27:28.019Z,-13.62
2022-12-27T18:29:57.311Z,-12.56
2022-12-27T18:32:28.363Z,-13.89
2022-12-27T18:35:01.150Z,-13.56
2022-12-27T18:37:31.420Z,-14.12
2022-12-27T18:40:05.052Z,-12.79
2022-12-27T18:42:38.103Z,-13.38
2022-12-27T18:45:10.468Z,-13.67
2022-12-27T18:47:48.721Z,-12.61
2022-12-27T18:50:21.560Z,-13.36
2022-12-27T18:52:54.986Z,-13.56
2022-12-27T18:55:28.001Z,-13.31
2022-12-27T18:58:05.841Z,-12.92
2022-12-27T19:00:48.515Z,-14.09
2022-12-27T19:03:21.388Z,-13.49
2022-12-27T19:06:04.582Z,-12.86
2022-12-27T19:08:37.395Z,-13.30
2022-12-27T19:11:08.384Z,-13.43
2022-12-27T19:13:45.109Z,-13.60
2022-12-27T19:16:24.247Z,-14.47
2022-12-27T19:18:58.232Z,-13.59
2022-12-27T19:21:37.076Z,-12.67
2022-12-27T19:24:22.379Z,-13.11
2022-12-27T19:26:52.724Z,-12.92
2022-12-27T19:29:23.585Z,-14.22
2022-12-27T19:31:56.998Z,-13.17
2022-12-27T19:34:30.796Z,-12.18
2022-12-27T19:37:00.522Z,-12.69
2022-12-27T19:39:33.537Z,-13.07
2022-12-27T19:42:07.056Z,-12.90
2022-12-27T19:44:36.808Z,-12.04
2022-12-27T19:47:06.109Z,-13.32
2022-12-27T19:49:45.049Z,-12.36
2022-12-27T19:52:18.524Z,-13.00
2022-12-27T19:54:48.055Z,-13.66
2022-12-27T19:57:17.353Z,-13.40
2022-12-27T19:59:46.649Z,-12.63
2022-12-27T20:02:16.025Z,-12.95
2022-12-27T20:04:46.831Z,-13.28
2022-12-27T20:07:22.385Z,-12.75
2022-12-27T20:09:52.044Z,-13.91
2022-12-27T20:12:21.307Z,-12.51
2022-12-27T20:14:50.635Z,-12.49
2022-12-27T20:17:19.896Z,-12.62
2022-12-27T20:19:52.062Z,-12.47
2022-12-27T20:22:21.377Z,-13.58
2022-12-27T20:24:51.768Z,-12.79
2022-12-27T20:27:24.216Z,-13.46
2022-12-27T20:29:53.842Z,-12.55
2022-12-27T20:32:23.161Z,-12.14
2022-12-27T20:34:54.082Z,-12.59
2022-12-27T20:37:24.866Z,-12.88
2022-12-27T20:39:54.458Z,-13.48
2022-12-27T20:42:24.877Z,-12.36
2022-12-27T20:44:54.183Z,-14.06
2022-12-27T20:47:25.083Z,-12.81
2022-12-27T20:49:55.803Z,-12.84
2022-12-27T20:52:30.822Z,-12.42
2022-12-27T20:55:00.643Z,-13.70
2022-12-27T20:57:29.906Z,-13.42
2022-12-27T20:59:59.254Z,-12.41
2022-12-27T21:02:28.728Z,-12.63
2022-12-27T21:04:59.662Z,-12.37
2022-12-27T21:07:28.948Z,-13.12
2022-12-27T21:09:58.209Z,-12.40
2022-12-27T21:12:27.486Z,-12.98
2022-12-27T21:14:56.769Z,-13.60
2022-12-27T21:17:26.066Z,-13.64
2022-12-27T21:19:55.382Z,-13.67
2022-12-27T21:22:26.179Z,-14.37
2022-12-27T21:24:55.441Z,-13.13
2022-12-27T21:27:24.774Z,-13.49
2022-12-27T21:29:54.535Z,-12.48
2022-12-27T21:32:23.873Z,-13.98
2022-12-27T21:34:53.174Z,-13.77
2022-12-27T21:37:22.788Z,-14.11
2022-12-27T21:39:53.569Z,-13.75
2022-12-27T21:42:22.808Z,-14.17
2022-12-27T21:44:52.091Z,-12.90
2022-12-27T21:47:21.310Z,-13.98
2022-12-27T21:49:50.514Z,-12.83
2022-12-27T21:52:19.854Z,-13.14
2022-12-27T21:54:49.084Z,-13.89
2022-12-27T21:57:19.843Z,-13.15
2022-12-27T21:59:49.203Z,-12.85
2022-12-27T22:02:19.158Z,-13.14
2022-12-27T22:04:48.540Z,-13.35
2022-12-27T22:07:17.764Z,-14.24
2022-12-27T22:09:47.036Z,-13.91
2022-12-27T22:12:16.279Z,-13.42
2022-12-27T22:14:47.033Z,-14.69
2022-12-27T22:17:16.340Z,-12.84
2022-12-27T22:19:45.534Z,-14.60
2022-12-27T22:22:14.796Z,-14.37
2022-12-27T22:24:44.072Z,-13.28
2022-12-27T22:27:13.318Z,-14.43
2022-12-27T22:29:42.649Z,-13.89
2022-12-27T22:32:13.473Z,-14.35
2022-12-27T22:34:42.713Z,-14.78
2022-12-27T22:37:12.180Z,-13.49
2022-12-27T22:39:41.471Z,-12.97
2022-12-27T22:42:10.682Z,-14.26
2022-12-27T22:44:39.980Z,-12.91
2022-12-27T22:47:26.249Z,-12.88
2022-12-27T22:49:58.501Z,-13.45
2022-12-27T22:52:27.759Z,-14.15
2022-12-27T22:55:03.962Z,-14.06
2022-12-27T22:57:36.675Z,-13.22
2022-12-27T23:00:07.536Z,-14.30
2022-12-27T23:02:36.950Z,-13.15
2022-12-27T23:05:08.891Z,-12.68
2022-12-27T23:08:06.272Z,-13.77
2022-12-27T23:10:27.448Z,-13.22
2022-12-27T23:12:58.097Z,-12.62
2022-12-27T23:15:27.504Z,-13.91
2022-12-27T23:17:56.748Z,-13.36
2022-12-27T23:20:27.594Z,-13.21
2022-12-27T23:22:56.864Z,-13.61
2022-12-27T23:25:26.114Z,-13.09
2022-12-27T23:27:55.375Z,-13.29
2022-12-27T23:30:24.740Z,-13.41
2022-12-27T23:32:53.979Z,-13.10
2022-12-27T23:35:23.247Z,-12.54
2022-12-27T23:37:54.041Z,-12.93
2022-12-27T23:40:23.287Z,-12.95
2022-12-27T23:42:52.611Z,-13.26
2022-12-27T23:45:21.900Z,-12.77
2022-12-27T23:47:51.217Z,-12.83
2022-12-27T23:50:21.158Z,-13.89
2022-12-27T23:52:50.698Z,-12.86
2022-12-27T23:55:21.592Z,-13.43
2022-12-27T23:57:50.861Z,-13.11
